createdAt,value
2022-12-01T00:01:01.086Z,25.42
2022-12-01T00:03:30.906Z,23.10
2022-12-01T00:06:02.614Z,21.27
2022-12-01T00:08:30.231Z,21.47
2022-12-01T00:11:08.809Z,19.70
2022-12-01T00:13:36.950Z,20.65
2022-12-01T00:16:15.201Z,21.95
2022-12-01T00:18:42.583Z,20.23
2022-12-01T00:21:17.523Z,21.17
2022-12-01T00:23:47.426Z,21.30
2022-12-01T00:26:15.952Z,20.08
2022-12-01T00:28:43.398Z,20.40
2022-12-01T00:31:12.138Z,21.55
2022-12-01T00:33:39.804Z,19.83
2022-12-01T00:36:07.322Z,21.52
2022-12-01T00:38:34.513Z,21.45
2022-12-01T00:41:01.788Z,22.38
2022-12-01T00:43:28.865Z,22.08
2022-12-01T00:46:22.498Z,19.87
2022-12-01T00:48:49.629Z,20.27
2022-12-01T00:51:16.656Z,19.42
2022-12-01T00:53:43.717Z,20.85
2022-12-01T00:56:10.828Z,19.60
2022-12-01T00:58:37.887Z,19.77
2022-12-01T01:01:05.159Z,19.40
2022-12-01T01:03:32.990Z,18.80
2022-12-01T01:06:08.975Z,18.60
2022-12-01T01:08:36.251Z,18.98
2022-12-01T01:11:04.193Z,17.60
2022-12-01T01:13:32.095Z,18.50
2022-12-01T01:16:08.644Z,18.92
2022-12-01T01:18:35.647Z,19.27
2022-12-01T01:21:06.346Z,18.17
2022-12-01T01:23:33.838Z,19.73
2022-12-01T01:26:06.355Z,19.08
2022-12-01T01:28:33.407Z,18.95
2022-12-01T01:31:04.483Z,18.45
2022-12-01T01:33:31.554Z,19.83
2022-12-01T01:36:02.479Z,19.33
2022-12-01T01:38:30.405Z,18.83
2022-12-01T01:40:57.806Z,18.77
2022-12-01T01:44:01.952Z,18.02
2022-12-01T01:46:33.949Z,18.50
2022-12-01T01:49:02.298Z,17.93
2022-12-01T01:51:39.777Z,18.75
2022-12-01T01:54:17.480Z,20.00
2022-12-01T02:01:15.883Z,17.02
2022-12-01T02:03:45.492Z,18.85
2022-12-01T02:06:12.629Z,17.88
2022-12-01T02:08:39.713Z,19.20
2022-12-01T02:11:48.439Z,18.23
2022-12-01T02:14:54.526Z,19.00
2022-12-01T02:17:41.392Z,18.08
2022-12-01T02:20:11.631Z,19.02
2022-12-01T02:23:12.910Z,19.67
2022-12-01T02:26:02.226Z,20.67
2022-12-01T02:28:35.118Z,18.67
2022-12-01T02:31:17.290Z,18.85
2022-12-01T02:33:53.465Z,19.25
2022-12-01T02:36:41.023Z,19.42
2022-12-01T02:39:17.532Z,19.73
2022-12-01T02:41:53.261Z,18.70
2022-12-01T02:44:36.310Z,21.25
2022-12-01T02:47:11.841Z,19.67
2022-12-01T02:49:49.617Z,19.52
2022-12-01T02:52:19.017Z,17.87
2022-12-01T02:54:48.499Z,18.00
2022-12-01T02:57:17.117Z,18.65
2022-12-01T02:59:50.180Z,19.17
2022-12-01T03:02:42.557Z,18.30
2022-12-01T03:05:15.433Z,18.75
2022-12-01T03:07:58.665Z,19.15
2022-12-01T03:10:41.593Z,18.67
2022-12-01T03:13:27.330Z,19.48
2022-12-01T03:16:17.803Z,18.43
2022-12-01T03:18:47.541Z,16.88
2022-12-01T03:21:23.702Z,17.15
2022-12-01T03:24:01.101Z,17.88
2022-12-01T03:26:32.841Z,19.00
2022-12-01T03:29:06.546Z,17.67
2022-12-01T03:31:39.651Z,16.40
2022-12-01T03:34:15.501Z,17.83
2022-12-01T03:36:47.804Z,17.23
2022-12-01T03:39:21.459Z,17.60
2022-12-01T03:42:04.132Z,17.70
2022-12-01T03:44:53.596Z,16.67
2022-12-01T03:47:23.820Z,19.80
2022-12-01T03:49:53.615Z,18.25
2022-12-01T03:52:40.519Z,17.65
2022-12-01T03:55:17.487Z,17.67
2022-12-01T03:57:50.301Z,17.30
2022-12-01T04:00:18.939Z,17.75
2022-12-01T04:02:46.110Z,17.77
2022-12-01T04:05:13.134Z,18.27
2022-12-01T04:07:40.720Z,18.57
2022-12-01T04:10:08.441Z,18.35
2022-12-01T04:12:35.585Z,19.40
2022-12-01T04:15:12.527Z,18.80
2022-12-01T04:17:43.365Z,18.42
2022-12-01T04:20:16.226Z,17.90
2022-12-01T04:22:43.647Z,18.17
2022-12-01T04:25:11.665Z,16.50
2022-12-01T04:27:39.989Z,17.48
2022-12-01T04:30:08.317Z,17.67
2022-12-01T04:32:40.057Z,16.57
2022-12-01T04:35:09.130Z,19.50
2022-12-01T04:37:36.179Z,18.95
2022-12-01T04:40:04.086Z,18.15
2022-12-01T04:42:31.379Z,17.88
2022-12-01T04:44:58.415Z,18.73
2022-12-01T04:47:25.465Z,17.65
2022-12-01T04:49:52.613Z,16.90
2022-12-01T04:52:19.512Z,18.45
2022-12-01T04:54:46.546Z,16.83
2022-12-01T04:57:26.192Z,16.27
2022-12-01T04:59:53.477Z,17.65
2022-12-01T05:02:20.558Z,16.23
2022-12-01T05:04:48.446Z,16.83
2022-12-01T05:07:15.554Z,15.97
2022-12-01T05:09:42.645Z,15.38
2022-12-01T05:12:09.699Z,17.65
2022-12-01T05:14:37.022Z,16.27
2022-12-01T05:17:06.849Z,16.42
2022-12-01T05:19:54.251Z,19.00
2022-12-01T05:22:36.709Z,16.33
2022-12-01T05:25:08.539Z,17.77
2022-12-01T05:27:38.075Z,16.70
2022-12-01T05:30:06.032Z,18.65
2022-12-01T05:32:32.932Z,15.90
2022-12-01T05:34:59.855Z,17.60
2022-12-01T05:37:26.838Z,16.52
2022-12-01T05:39:53.862Z,17.88
2022-12-01T05:42:21.004Z,18.77
2022-12-01T05:44:48.000Z,16.50
2022-12-01T05:47:15.098Z,17.52
2022-12-01T05:49:42.100Z,17.90
2022-12-01T05:52:09.102Z,18.52
2022-12-01T05:54:36.098Z,18.55
2022-12-01T05:57:03.114Z,17.27
2022-12-01T05:59:30.067Z,17.25
2022-12-01T06:01:59.514Z,18.38
2022-12-01T06:04:26.523Z,17.60
2022-12-01T06:06:53.534Z,19.98
2022-12-01T06:09:20.543Z,18.13
2022-12-01T06:11:52.264Z,19.27
2022-12-01T06:14:19.675Z,16.88
2022-12-01T06:16:46.610Z,18.13
2022-12-01T06:19:13.741Z,18.23
2022-12-01T06:21:40.775Z,19.83
2022-12-01T06:24:08.032Z,18.25
2022-12-01T06:26:34.935Z,21.23
2022-12-01T06:29:01.884Z,19.55
2022-12-01T06:31:31.516Z,18.25
2022-12-01T06:33:58.469Z,18.33
2022-12-01T06:36:25.434Z,20.27
2022-12-01T06:38:52.441Z,19.00
2022-12-01T06:41:24.509Z,19.88
2022-12-01T06:43:51.503Z,19.60
2022-12-01T06:46:18.688Z,17.53
2022-12-01T06:48:48.448Z,19.00
2022-12-01T06:51:15.315Z,18.38
2022-12-01T06:53:42.389Z,15.75
2022-12-01T06:56:09.464Z,18.00
2022-12-01T06:58:36.692Z,17.90
2022-12-01T07:01:11.041Z,17.83
2022-12-01T07:03:39.024Z,19.27
2022-12-01T07:06:06.551Z,20.13
2022-12-01T07:08:33.857Z,20.30
2022-12-01T07:11:05.576Z,21.07
2022-12-01T07:13:33.940Z,20.20
2022-12-01T07:16:04.962Z,21.55
2022-12-01T07:18:33.233Z,20.95
2022-12-01T07:21:22.148Z,21.70
2022-12-01T07:23:49.182Z,32.60
2022-12-01T07:26:18.217Z,31.27
2022-12-01T07:28:45.727Z,26.95
2022-12-01T07:31:15.899Z,28.05
2022-12-01T07:33:43.368Z,25.25
2022-12-01T07:36:14.182Z,26.97
2022-12-01T07:38:42.046Z,26.83
2022-12-01T07:41:21.975Z,27.80
2022-12-01T07:43:50.913Z,25.25
2022-12-01T07:46:23.695Z,27.88
2022-12-01T07:48:52.893Z,28.07
2022-12-01T07:51:20.820Z,28.95
2022-12-01T07:53:51.327Z,25.05
2022-12-01T07:56:19.207Z,23.85
2022-12-01T07:58:46.124Z,24.67
2022-12-01T08:01:19.518Z,23.10
2022-12-01T08:03:51.571Z,25.17
2022-12-01T08:06:20.749Z,29.52
2022-12-01T08:08:47.927Z,28.15
2022-12-01T08:11:23.743Z,27.42
2022-12-01T08:13:52.340Z,25.43
2022-12-01T08:16:21.381Z,24.52
2022-12-01T08:18:49.065Z,25.00
2022-12-01T08:21:19.486Z,24.10
2022-12-01T08:23:47.268Z,24.23
2022-12-01T08:26:16.934Z,23.50
2022-12-01T08:28:44.844Z,24.15
2022-12-01T08:31:19.716Z,25.70
2022-12-01T08:33:47.968Z,24.38
2022-12-01T08:36:18.576Z,23.83
2022-12-01T08:38:50.508Z,23.23
2022-12-01T08:41:18.211Z,22.23
2022-12-01T08:44:01.651Z,24.67
2022-12-01T08:46:33.479Z,25.67
2022-12-01T08:49:01.701Z,25.00
2022-12-01T08:51:31.383Z,25.07
2022-12-01T08:53:59.912Z,25.70
2022-12-01T08:56:36.344Z,24.27
2022-12-01T08:59:04.696Z,23.98
2022-12-01T09:01:33.211Z,25.00
2022-12-01T09:04:11.215Z,25.27
2022-12-01T09:06:46.585Z,24.73
2022-12-01T09:09:18.937Z,25.02
2022-12-01T09:11:47.076Z,26.33
2022-12-01T09:14:16.444Z,23.95
2022-12-01T09:16:47.190Z,25.40
2022-12-01T09:19:24.267Z,25.48
2022-12-01T09:21:52.005Z,26.30
2022-12-01T09:24:19.006Z,24.40
2022-12-01T09:26:48.400Z,24.67
2022-12-01T09:29:16.925Z,25.70
2022-12-01T09:31:44.481Z,24.80
2022-12-01T09:34:19.104Z,26.73
2022-12-01T09:36:49.682Z,26.55
2022-12-01T09:39:21.716Z,30.08
2022-12-01T09:42:09.283Z,26.73
2022-12-01T09:44:43.035Z,26.65
2022-12-01T09:47:26.486Z,27.40
2022-12-01T09:50:14.298Z,26.33
2022-12-01T09:52:47.822Z,26.75
2022-12-01T09:55:19.098Z,26.63
2022-12-01T09:57:52.570Z,27.90
2022-12-01T10:00:23.152Z,25.92
2022-12-01T10:03:06.101Z,26.80
2022-12-01T10:06:25.250Z,25.33
2022-12-01T10:09:16.329Z,23.40
2022-12-01T10:11:47.050Z,23.90
2022-12-01T10:14:20.100Z,27.63
2022-12-01T10:17:28.648Z,25.80
2022-12-01T10:20:14.299Z,27.08
2022-12-01T10:23:02.899Z,25.40
2022-12-01T10:25:51.296Z,25.50
2022-12-01T10:28:37.730Z,24.90
2022-12-01T10:31:23.572Z,25.52
2022-12-01T10:33:59.807Z,25.40
2022-12-01T10:36:30.971Z,28.20
2022-12-01T10:39:01.312Z,27.38
2022-12-01T10:41:32.815Z,27.30
2022-12-01T10:44:03.339Z,27.50
2022-12-01T10:46:42.225Z,26.92
2022-12-01T10:49:12.469Z,27.70
2022-12-01T10:51:54.276Z,26.70
2022-12-01T10:54:23.778Z,28.20
2022-12-01T10:57:10.193Z,27.15
2022-12-01T11:00:25.525Z,29.67
2022-12-01T11:03:56.233Z,27.83
2022-12-01T11:06:29.547Z,26.40
2022-12-01T11:09:01.927Z,25.70
2022-12-01T11:11:37.240Z,26.02
2022-12-01T11:14:46.807Z,26.00
2022-12-01T11:17:29.543Z,26.27
2022-12-01T11:19:57.148Z,33.08
2022-12-01T11:22:31.878Z,34.88
2022-12-01T11:25:02.020Z,30.30
2022-12-01T11:27:51.240Z,28.95
2022-12-01T11:30:25.244Z,26.37
2022-12-01T11:33:04.432Z,25.45
2022-12-01T11:35:35.233Z,25.45
2022-12-01T11:38:28.867Z,25.80
2022-12-01T11:40:58.626Z,25.50
2022-12-01T11:43:32.941Z,25.30
2022-12-01T11:46:10.521Z,25.02
2022-12-01T11:48:38.231Z,26.38
2022-12-01T11:51:20.071Z,25.83
2022-12-01T11:53:49.861Z,26.40
2022-12-01T11:56:22.698Z,26.20
2022-12-01T11:58:56.855Z,26.60
2022-12-01T12:01:46.112Z,27.83
2022-12-01T12:04:21.418Z,26.90
2022-12-01T12:07:13.621Z,30.83
2022-12-01T12:09:56.276Z,27.37
2022-12-01T12:12:50.708Z,27.52
2022-12-01T12:16:05.115Z,28.00
2022-12-01T12:19:01.787Z,30.98
2022-12-01T12:21:44.193Z,28.48
2022-12-01T12:24:38.184Z,26.73
2022-12-01T12:27:08.092Z,29.90
2022-12-01T12:29:53.253Z,28.70
2022-12-01T12:32:23.056Z,27.83
2022-12-01T12:35:24.528Z,28.40
2022-12-01T12:37:57.377Z,28.50
2022-12-01T12:40:33.401Z,29.48
2022-12-01T12:43:23.110Z,28.77
2022-12-01T12:46:11.100Z,29.05
2022-12-01T12:49:18.659Z,27.00
2022-12-01T12:52:08.982Z,26.50
2022-12-01T12:54:46.497Z,28.70
2022-12-01T12:57:36.932Z,31.58
2022-12-01T13:00:17.106Z,30.02
2022-12-01T13:02:50.782Z,31.33
2022-12-01T13:05:34.114Z,30.90
2022-12-01T13:08:04.096Z,31.67
2022-12-01T13:10:44.939Z,26.00
2022-12-01T13:13:15.537Z,29.77
2022-12-01T13:15:44.572Z,31.00
2022-12-01T13:18:29.711Z,28.13
2022-12-01T13:20:58.741Z,29.23
2022-12-01T13:23:27.155Z,31.08
2022-12-01T13:25:57.623Z,32.67
2022-12-01T13:28:29.468Z,31.33
2022-12-01T13:31:04.802Z,28.63
2022-12-01T13:33:33.679Z,28.70
2022-12-01T13:36:38.176Z,29.27
2022-12-01T13:39:01.851Z,30.20
2022-12-01T13:41:40.357Z,29.90
2022-12-01T13:44:18.549Z,27.60
2022-12-01T13:46:47.883Z,27.02
2022-12-01T13:49:40.804Z,26.95
2022-12-01T13:52:23.385Z,23.55
2022-12-01T13:55:14.434Z,24.38
2022-12-01T13:58:09.854Z,21.30
2022-12-01T14:00:37.378Z,22.83
2022-12-01T14:03:19.842Z,23.38
2022-12-01T14:05:53.681Z,24.20
2022-12-01T14:08:29.553Z,24.83
2022-12-01T14:11:26.893Z,23.70
2022-12-01T14:14:26.053Z,24.40
2022-12-01T14:16:58.780Z,25.85
2022-12-01T14:19:47.161Z,24.17
2022-12-01T14:23:00.088Z,23.77
2022-12-01T14:25:30.729Z,24.50
2022-12-01T14:28:16.037Z,23.88
2022-12-01T14:30:46.121Z,26.58
2022-12-01T14:34:15.740Z,27.20
2022-12-01T14:37:03.407Z,25.42
2022-12-01T14:39:45.983Z,25.80
2022-12-01T14:42:51.930Z,28.55
2022-12-01T14:45:27.715Z,29.63
2022-12-01T14:48:26.059Z,31.48
2022-12-01T14:51:28.537Z,28.90
2022-12-01T14:54:11.457Z,28.93
2022-12-01T14:56:43.898Z,28.48
2022-12-01T14:59:27.658Z,30.33
2022-12-01T15:02:17.478Z,28.58
2022-12-01T15:05:12.227Z,29.75
2022-12-01T15:07:46.593Z,32.23
2022-12-01T15:10:27.857Z,32.38
2022-12-01T15:12:58.268Z,32.35
2022-12-01T15:15:53.632Z,32.53
2022-12-01T15:18:54.240Z,31.05
2022-12-01T15:21:26.025Z,27.97
2022-12-01T15:24:00.033Z,31.02
2022-12-01T15:30:59.714Z,33.47
2022-12-01T15:33:37.217Z,27.35
2022-12-01T15:36:13.072Z,29.53
2022-12-01T15:38:53.419Z,29.25
2022-12-01T15:41:30.958Z,28.23
2022-12-01T15:44:05.568Z,27.27
2022-12-01T15:46:34.927Z,28.15
2022-12-01T15:49:16.235Z,29.20
2022-12-01T15:51:43.675Z,24.98
2022-12-01T15:54:28.762Z,25.02
2022-12-01T15:56:59.168Z,17.17
2022-12-01T15:59:37.539Z,16.00
2022-12-01T16:02:12.751Z,15.87
2022-12-01T16:04:40.559Z,16.73
2022-12-01T16:07:11.297Z,18.08
2022-12-01T16:09:50.806Z,17.45
2022-12-01T16:12:27.722Z,16.08
2022-12-01T16:15:00.810Z,17.83
2022-12-01T16:17:40.752Z,16.67
2022-12-01T16:20:18.710Z,15.98
2022-12-01T16:22:47.866Z,15.85
2022-12-01T16:25:27.748Z,16.00
2022-12-01T16:27:56.843Z,13.47
2022-12-01T16:30:29.944Z,15.18
2022-12-01T16:33:17.870Z,14.88
2022-12-01T16:35:45.549Z,15.43
2022-12-01T16:38:22.906Z,14.80
2022-12-01T16:40:55.904Z,16.00
2022-12-01T16:43:26.752Z,16.83
2022-12-01T16:46:03.401Z,17.58
2022-12-01T16:48:31.820Z,16.50
2022-12-01T16:51:03.927Z,15.23
2022-12-01T16:53:34.286Z,17.30
2022-12-01T16:56:03.580Z,16.08
2022-12-01T16:58:31.305Z,19.90
2022-12-01T17:01:01.320Z,17.98
2022-12-01T17:03:36.066Z,17.80
2022-12-01T17:06:49.375Z,20.53
2022-12-01T17:09:16.510Z,22.08
2022-12-01T17:11:43.939Z,22.67
2022-12-01T17:14:23.711Z,20.23
2022-12-01T17:17:12.072Z,21.83
2022-12-01T17:19:47.571Z,21.53
2022-12-01T17:22:38.429Z,24.90
2022-12-01T17:25:08.967Z,25.55
2022-12-01T17:27:37.892Z,24.08
2022-12-01T17:30:45.219Z,22.92
2022-12-01T17:38:07.779Z,24.77
2022-12-01T17:41:25.844Z,24.30
2022-12-01T17:44:05.831Z,23.73
2022-12-01T17:46:33.211Z,22.77
2022-12-01T17:49:01.530Z,23.73
2022-12-01T17:51:47.519Z,23.80
2022-12-01T17:54:15.121Z,21.42
2022-12-01T17:56:43.541Z,21.38
2022-12-01T17:59:18.990Z,23.52
2022-12-01T18:01:54.361Z,23.07
2022-12-01T18:04:26.356Z,20.52
2022-12-01T18:06:54.562Z,21.05
2022-12-01T18:09:22.004Z,21.23
2022-12-01T18:11:49.630Z,23.45
2022-12-01T18:14:18.005Z,20.47
2022-12-01T18:21:19.572Z,20.10
2022-12-01T18:24:02.932Z,19.50
2022-12-01T18:26:33.042Z,20.38
2022-12-01T18:29:08.887Z,21.23
2022-12-01T18:31:40.313Z,21.67
2022-12-01T18:34:09.144Z,20.42
2022-12-01T18:36:39.103Z,21.40
2022-12-01T18:39:08.289Z,21.88
2022-12-01T18:46:23.062Z,22.60
2022-12-01T18:50:18.256Z,22.30
2022-12-01T18:52:54.269Z,22.10
2022-12-01T18:55:21.390Z,21.40
2022-12-01T18:57:48.604Z,22.27
2022-12-01T19:00:51.217Z,21.27
2022-12-01T19:07:48.705Z,21.38
2022-12-01T19:10:16.174Z,23.48
2022-12-01T19:12:43.486Z,23.10
2022-12-01T19:15:17.098Z,32.03
2022-12-01T19:17:44.571Z,26.08
2022-12-01T19:20:14.475Z,25.73
2022-12-01T19:22:41.509Z,24.15
2022-12-01T19:25:13.775Z,22.63
2022-12-01T19:27:41.049Z,22.52
2022-12-01T19:30:09.875Z,23.50
2022-12-01T19:32:37.330Z,22.63
2022-12-01T19:35:05.118Z,21.42
2022-12-01T19:37:32.605Z,21.70
2022-12-01T19:39:59.741Z,23.42
2022-12-01T19:42:26.771Z,22.63
2022-12-01T19:44:53.807Z,21.10
2022-12-01T19:47:23.957Z,21.45
2022-12-01T19:49:53.764Z,22.90
2022-12-01T19:52:23.441Z,20.55
2022-12-01T19:54:51.356Z,20.63
2022-12-01T19:57:29.314Z,20.25
2022-12-01T20:00:07.968Z,19.55
2022-12-01T20:02:47.919Z,21.07
2022-12-01T20:05:27.677Z,21.80
2022-12-01T20:07:58.024Z,23.55
2022-12-01T20:10:31.560Z,20.42
2022-12-01T20:12:59.489Z,20.15
2022-12-01T20:15:26.868Z,21.77
2022-12-01T20:17:54.253Z,20.33
2022-12-01T20:20:22.821Z,25.83
2022-12-01T20:22:49.943Z,25.35
2022-12-01T20:29:49.572Z,24.23
2022-12-01T20:32:21.990Z,28.17
2022-12-01T20:34:52.169Z,27.10
2022-12-01T20:37:19.643Z,26.50
2022-12-01T20:39:47.604Z,26.35
2022-12-01T20:42:15.080Z,28.87
2022-12-01T20:44:42.202Z,29.20
2022-12-01T20:47:09.273Z,29.63
2022-12-01T20:49:36.283Z,28.65
2022-12-01T20:52:03.674Z,26.58
2022-12-01T20:54:31.523Z,25.40
2022-12-01T20:57:28.350Z,25.05
2022-12-01T20:59:55.416Z,23.08
2022-12-01T21:02:22.630Z,25.13
2022-12-01T21:04:49.964Z,26.52
2022-12-01T21:07:18.101Z,25.60
2022-12-01T21:09:47.624Z,28.35
2022-12-01T21:12:36.537Z,26.58
2022-12-01T21:15:17.922Z,26.35
2022-12-01T21:17:55.484Z,23.05
2022-12-01T21:20:36.081Z,25.17
2022-12-01T21:23:11.791Z,25.20
2022-12-01T21:25:48.273Z,25.60
2022-12-01T21:28:24.261Z,23.13
2022-12-01T21:31:14.817Z,24.15
2022-12-01T21:33:43.221Z,23.17
2022-12-01T21:36:22.407Z,18.30
2022-12-01T21:38:57.532Z,21.98
2022-12-01T21:41:27.504Z,20.35
2022-12-01T21:44:09.232Z,22.55
2022-12-01T21:46:39.004Z,21.13
2022-12-01T21:49:12.944Z,22.20
2022-12-01T21:51:39.923Z,22.02
2022-12-01T21:54:14.247Z,23.38
2022-12-01T21:56:44.256Z,20.17
2022-12-01T21:59:22.473Z,20.87
2022-12-01T22:01:54.139Z,20.30
2022-12-01T22:04:25.809Z,24.52
2022-12-01T22:11:18.897Z,18.63
2022-12-01T22:14:05.125Z,21.40
2022-12-01T22:16:36.543Z,23.55
2022-12-01T22:19:29.249Z,22.95
2022-12-01T22:22:12.036Z,21.35
2022-12-01T22:24:42.414Z,19.33
2022-12-01T22:27:30.079Z,23.17
2022-12-01T22:30:06.742Z,21.17
2022-12-01T22:32:59.552Z,21.10
2022-12-01T22:35:48.507Z,23.33
2022-12-01T22:38:33.938Z,22.08
2022-12-01T22:41:06.904Z,20.43
2022-12-01T22:44:02.237Z,19.00
2022-12-01T22:46:32.323Z,23.45
2022-12-01T22:49:13.972Z,22.92
2022-12-01T22:51:49.017Z,22.25
2022-12-01T22:54:15.968Z,21.03
2022-12-01T23:01:24.894Z,25.85
2022-12-01T23:04:21.382Z,26.17
2022-12-01T23:06:56.139Z,27.38
2022-12-01T23:09:27.574Z,25.00
2022-12-01T23:12:23.650Z,21.92
2022-12-01T23:14:53.940Z,22.30
2022-12-01T23:17:30.286Z,28.10
2022-12-01T23:20:28.213Z,25.20
2022-12-01T23:22:57.398Z,28.77
2022-12-01T23:25:28.181Z,26.60
2022-12-01T23:27:59.426Z,24.60
2022-12-01T23:30:26.614Z,19.27
2022-12-01T23:33:06.743Z,18.15
2022-12-01T23:36:00.413Z,18.00
2022-12-01T23:38:48.111Z,17.65
2022-12-01T23:41:31.162Z,16.80
2022-12-01T23:44:00.777Z,15.32
2022-12-01T23:46:28.492Z,16.88
2022-12-01T23:49:03.738Z,16.43
2022-12-01T23:52:02.355Z,18.88
2022-12-01T23:54:34.900Z,17.58
2022-12-01T23:57:10.642Z,17.15
2022-12-01T23:59:38.452Z,16.90
